Portada
METAR-TAF:

METAR-TAF

Aeropuertos :

Aeropuerto Internacional de Nuakchot

Nuakchot, Mauritania

latitud: 18-18-36N, longitud: 015-58-11W, altitud: 3 m

Observación

El informe se hizo hace 15 horas y 15 minutos, a las 05:00 UTC
Viento 6 kt del noroeste
Temperatura 23°C
Humedad 89%
Presión 1011 hPa
Visibilidad 10 km o más
sin nubes por debajo de 1500 m y sin presencia de cumulonimbus.

METAR: GQNO 210500Z 31006KT CAVOK 23/21 Q1011 NOSIG

Hora: 20:15 (20:15 UTC)

Pronóstico

El informe se hizo hace 21 horas y 15 minutos, a las 23:00 UTC
Pronóstico válido del 21 a las 00 UTC al 22 a las 06 UTC
Viento 10 kt del oeste-noroeste
Visibilidad: 8000 m
Probabilidad 30% :
Temporalmente
del 21 a las 00 UTC al 21 a las 02 UTC
lluvia ligera
Temporalmente
del 21 a las 02 UTC al 21 a las 09 UTC
Cielo nuboso a una altura de 1000 ft

TAF: GQNO 202300Z 2100/2206 30010KT 8000 NSC PROB30 TEMPO 2100/2102 -RA TEMPO 2102/2109 BKN010

Observaciones y pronósticos meteorológicos de más de 4000 aeropuertos (mensajes METAR y TAF).

Los puntos amarillos y rojos representan las estaciones disponibles.

Ponga el ratón en el punto deseado para ver el nombre de la estación.

Haga clic para ver las observaciones y los pronósticos meteorológicos.

Para cambiar el mapa : haga clic en los botones verdes con una cruz de color negro para hacer un zoom, en el botón verde con un guión para alejar o en las flechas verdes para mapas adyacentes.


METAR-TAF: